sensor_id;sensor_type;location;lat;lon;timestamp;pressure;altitude;pressure_sealevel;temperature;humidity
83128;BME280;73148;50.988;11.034;2023-11-19T00:00:15;98859.78;;;17.66;59.92
83128;BME280;73148;50.988;11.034;2023-11-19T00:02:41;98873.81;;;17.65;59.83
83128;BME280;73148;50.988;11.034;2023-11-19T00:05:07;98850.06;;;17.69;59.66
83128;BME280;73148;50.988;11.034;2023-11-19T00:07:38;98862.34;;;17.67;59.74
83128;BME280;73148;50.988;11.034;2023-11-19T00:10:07;98862.25;;;17.70;59.63
83128;BME280;73148;50.988;11.034;2023-11-19T00:12:34;98850.13;;;17.68;59.70
83128;BME280;73148;50.988;11.034;2023-11-19T00:15:00;98844.03;;;17.67;59.50
83128;BME280;73148;50.988;11.034;2023-11-19T00:17:25;98839.59;;;17.69;59.58
83128;BME280;73148;50.988;11.034;2023-11-19T00:19:52;98823.41;;;17.58;59.46
83128;BME280;73148;50.988;11.034;2023-11-19T00:22:17;98838.78;;;17.67;59.55
83128;BME280;73148;50.988;11.034;2023-11-19T00:24:44;98832.56;;;17.70;59.42
83128;BME280;73148;50.988;11.034;2023-11-19T00:27:10;98828.19;;;17.70;59.34
83128;BME280;73148;50.988;11.034;2023-11-19T00:29:35;98808.06;;;17.71;59.10
83128;BME280;73148;50.988;11.034;2023-11-19T00:32:01;98799.44;;;17.69;59.11
83128;BME280;73148;50.988;11.034;2023-11-19T00:34:27;98788.03;;;17.70;59.04
83128;BME280;73148;50.988;11.034;2023-11-19T00:36:52;98791.53;;;17.70;59.16
83128;BME280;73148;50.988;11.034;2023-11-19T00:39:18;98773.19;;;17.70;59.05
83128;BME280;73148;50.988;11.034;2023-11-19T00:41:44;98763.69;;;17.68;59.04
83128;BME280;73148;50.988;11.034;2023-11-19T00:44:11;98768.97;;;17.66;59.14
83128;BME280;73148;50.988;11.034;2023-11-19T00:46:36;98765.38;;;17.69;58.81
83128;BME280;73148;50.988;11.034;2023-11-19T00:49:02;98759.16;;;17.71;58.86
83128;BME280;73148;50.988;11.034;2023-11-19T00:51:27;98746.13;;;17.70;58.73
83128;BME280;73148;50.988;11.034;2023-11-19T00:53:53;98752.22;;;17.70;58.56
83128;BME280;73148;50.988;11.034;2023-11-19T00:56:18;98740.03;;;17.69;58.81
83128;BME280;73148;50.988;11.034;2023-11-19T00:58:46;98745.16;;;17.72;58.46
83128;BME280;73148;50.988;11.034;2023-11-19T01:01:11;98744.41;;;17.69;58.47
83128;BME280;73148;50.988;11.034;2023-11-19T01:03:36;98743.50;;;17.70;58.62
83128;BME280;73148;50.988;11.034;2023-11-19T01:06:02;98741.84;;;17.67;58.74
83128;BME280;73148;50.988;11.034;2023-11-19T01:08:28;98742.66;;;17.69;58.59
83128;BME280;73148;50.988;11.034;2023-11-19T01:10:53;98745.34;;;17.68;58.54
83128;BME280;73148;50.988;11.034;2023-11-19T01:13:19;98734.88;;;17.68;58.62
83128;BME280;73148;50.988;11.034;2023-11-19T01:15:45;98728.75;;;17.67;58.42
83128;BME280;73148;50.988;11.034;2023-11-19T01:18:12;98734.00;;;17.67;58.76
83128;BME280;73148;50.988;11.034;2023-11-19T01:20:38;98727.00;;;17.68;58.68
83128;BME280;73148;50.988;11.034;2023-11-19T01:23:03;98722.53;;;17.70;58.67
83128;BME280;73148;50.988;11.034;2023-11-19T01:25:29;98726.94;;;17.69;58.71
83128;BME280;73148;50.988;11.034;2023-11-19T01:27:54;98713.84;;;17.69;58.51
83128;BME280;73148;50.988;11.034;2023-11-19T01:30:22;98722.53;;;17.70;58.70
83128;BME280;73148;50.988;11.034;2023-11-19T01:32:49;98718.16;;;17.70;58.62
83128;BME280;73148;50.988;11.034;2023-11-19T01:35:15;98719.88;;;17.71;58.75
83128;BME280;73148;50.988;11.034;2023-11-19T01:37:40;98710.31;;;17.70;58.56
83128;BME280;73148;50.988;11.034;2023-11-19T01:40:06;98712.06;;;17.70;58.58
83128;BME280;73148;50.988;11.034;2023-11-19T01:42:36;98675.09;;;17.56;58.66
83128;BME280;73148;50.988;11.034;2023-11-19T01:45:02;98695.50;;;17.69;58.87
83128;BME280;73148;50.988;11.034;2023-11-19T01:47:28;98684.16;;;17.69;58.76
83128;BME280;73148;50.988;11.034;2023-11-19T01:49:56;98666.69;;;17.69;58.80
83128;BME280;73148;50.988;11.034;2023-11-19T01:52:23;98663.16;;;17.70;58.51
83128;BME280;73148;50.988;11.034;2023-11-19T01:54:49;98644.88;;;17.69;58.57
83128;BME280;73148;50.988;11.034;2023-11-19T01:57:15;98643.97;;;17.70;58.64
83128;BME280;73148;50.988;11.034;2023-11-19T01:59:41;98644.81;;;17.70;58.40
83128;BME280;73148;50.988;11.034;2023-11-19T02:02:07;98620.31;;;17.71;58.43
83128;BME280;73148;50.988;11.034;2023-11-19T02:04:32;98603.50;;;17.55;58.40
83128;BME280;73148;50.988;11.034;2023-11-19T02:07:00;98641.34;;;17.70;58.23
83128;BME280;73148;50.988;11.034;2023-11-19T02:09:26;98616.94;;;17.69;58.50
83128;BME280;73148;50.988;11.034;2023-11-19T02:11:52;98607.28;;;17.70;58.51
83128;BME280;73148;50.988;11.034;2023-11-19T02:14:18;98608.16;;;17.70;58.53
83128;BME280;73148;50.988;11.034;2023-11-19T02:16:43;98595.97;;;17.69;58.57
83128;BME280;73148;50.988;11.034;2023-11-19T02:19:09;98593.25;;;17.71;58.48
83128;BME280;73148;50.988;11.034;2023-11-19T02:21:36;98593.34;;;17.69;58.33
83128;BME280;73148;50.988;11.034;2023-11-19T02:24:05;98582.94;;;17.68;58.25
83128;BME280;73148;50.988;11.034;2023-11-19T02:26:36;98574.09;;;17.70;58.14
83128;BME280;73148;50.988;11.034;2023-11-19T02:29:05;98571.47;;;17.70;58.16
83128;BME280;73148;50.988;11.034;2023-11-19T02:31:32;98557.56;;;17.68;58.39
83128;BME280;73148;50.988;11.034;2023-11-19T02:33:57;98552.28;;;17.70;58.21
83128;BME280;73148;50.988;11.034;2023-11-19T02:36:22;98542.72;;;17.69;58.20
83128;BME280;73148;50.988;11.034;2023-11-19T02:38:48;98553.13;;;17.70;58.26
83128;BME280;73148;50.988;11.034;2023-11-19T02:41:14;98567.22;;;17.68;58.30
83128;BME280;73148;50.988;11.034;2023-11-19T02:43:39;98552.81;;;17.56;58.05
83128;BME280;73148;50.988;11.034;2023-11-19T02:46:06;98571.69;;;17.64;58.16
83128;BME280;73148;50.988;11.034;2023-11-19T02:48:32;98577.69;;;17.68;58.20
83128;BME280;73148;50.988;11.034;2023-11-19T02:50:57;98589.09;;;17.67;58.37
83128;BME280;73148;50.988;11.034;2023-11-19T02:53:23;98587.25;;;17.69;58.11
83128;BME280;73148;50.988;11.034;2023-11-19T02:55:49;98581.94;;;17.70;58.07
83128;BME280;73148;50.988;11.034;2023-11-19T02:58:15;98571.41;;;17.72;58.09
83128;BME280;73148;50.988;11.034;2023-11-19T03:00:49;98567.06;;;17.71;58.05
83128;BME280;73148;50.988;11.034;2023-11-19T03:03:23;98568.00;;;17.70;57.99
83128;BME280;73148;50.988;11.034;2023-11-19T03:05:53;98566.22;;;17.70;57.96
83128;BME280;73148;50.988;11.034;2023-11-19T03:08:19;98569.78;;;17.69;58.22
83128;BME280;73148;50.988;11.034;2023-11-19T03:10:44;98571.47;;;17.70;58.22
83128;BME280;73148;50.988;11.034;2023-11-19T03:13:12;98567.94;;;17.71;58.10
83128;BME280;73148;50.988;11.034;2023-11-19T03:15:40;98567.06;;;17.71;58.22
83128;BME280;73148;50.988;11.034;2023-11-19T03:18:06;98569.69;;;17.71;58.08
83128;BME280;73148;50.988;11.034;2023-11-19T03:20:33;98579.28;;;17.72;58.17
83128;BME280;73148;50.988;11.034;2023-11-19T03:22:58;98581.03;;;17.71;58.08
83128;BME280;73148;50.988;11.034;2023-11-19T03:25:25;98574.88;;;17.72;57.96
83128;BME280;73148;50.988;11.034;2023-11-19T03:28:01;98565.38;;;17.70;57.94
83128;BME280;73148;50.988;11.034;2023-11-19T03:30:30;98560.28;;;17.67;57.90
83128;BME280;73148;50.988;11.034;2023-11-19T03:32:56;98563.63;;;17.70;57.87
83128;BME280;73148;50.988;11.034;2023-11-19T03:35:21;98552.22;;;17.71;57.99
83128;BME280;73148;50.988;11.034;2023-11-19T03:37:48;98545.28;;;17.70;58.02
83128;BME280;73148;50.988;11.034;2023-11-19T03:40:14;98556.59;;;17.71;57.89
83128;BME280;73148;50.988;11.034;2023-11-19T03:42:39;98539.97;;;17.72;57.87
83128;BME280;73148;50.988;11.034;2023-11-19T03:45:06;98533.00;;;17.71;57.90
83128;BME280;73148;50.988;11.034;2023-11-19T03:47:33;98524.31;;;17.70;57.91
83128;BME280;73148;50.988;11.034;2023-11-19T03:49:59;98524.25;;;17.72;57.87
83128;BME280;73148;50.988;11.034;2023-11-19T03:52:24;98526.88;;;17.72;58.05
83128;BME280;73148;50.988;11.034;2023-11-19T03:54:51;98529.50;;;17.72;57.75
83128;BME280;73148;50.988;11.034;2023-11-19T03:57:16;98509.53;;;17.69;57.67
83128;BME280;73148;50.988;11.034;2023-11-19T03:59:42;98502.44;;;17.71;57.64
83128;BME280;73148;50.988;11.034;2023-11-19T04:02:07;98499.81;;;17.71;57.85
83128;BME280;73148;50.988;11.034;2023-11-19T04:04:33;98487.72;;;17.69;57.79
83128;BME280;73148;50.988;11.034;2023-11-19T04:06:59;98453.31;;;17.56;57.71
83128;BME280;73148;50.988;11.034;2023-11-19T04:09:26;98496.44;;;17.69;57.92
83128;BME280;73148;50.988;11.034;2023-11-19T04:11:52;98503.38;;;17.70;58.01
83128;BME280;73148;50.988;11.034;2023-11-19T04:14:18;98498.06;;;17.72;58.25
83128;BME280;73148;50.988;11.034;2023-11-19T04:16:43;98512.00;;;17.72;57.92
83128;BME280;73148;50.988;11.034;2023-11-19T04:19:09;98505.94;;;17.72;58.03
83128;BME280;73148;50.988;11.034;2023-11-19T04:21:34;98505.00;;;17.73;58.02
83128;BME280;73148;50.988;11.034;2023-11-19T04:23:59;98490.06;;;17.75;58.00
83128;BME280;73148;50.988;11.034;2023-11-19T04:26:26;98487.59;;;17.72;58.18
83128;BME280;73148;50.988;11.034;2023-11-19T04:28:52;98502.38;;;17.73;58.23
83128;BME280;73148;50.988;11.034;2023-11-19T04:31:18;98499.69;;;17.74;58.06
83128;BME280;73148;50.988;11.034;2023-11-19T04:33:43;98499.69;;;17.74;58.16
83128;BME280;73148;50.988;11.034;2023-11-19T04:36:09;98506.63;;;17.75;58.03
83128;BME280;73148;50.988;11.034;2023-11-19T04:38:35;98504.81;;;17.77;58.11
83128;BME280;73148;50.988;11.034;2023-11-19T04:41:00;98478.63;;;17.77;58.00
83128;BME280;73148;50.988;11.034;2023-11-19T04:43:26;98490.91;;;17.75;57.96
83128;BME280;73148;50.988;11.034;2023-11-19T04:45:53;98483.06;;;17.75;58.02
83128;BME280;73148;50.988;11.034;2023-11-19T04:48:19;98496.97;;;17.77;58.06
83128;BME280;73148;50.988;11.034;2023-11-19T04:50:44;98510.13;;;17.76;57.97
83128;BME280;73148;50.988;11.034;2023-11-19T04:53:09;98516.19;;;17.76;57.86
83128;BME280;73148;50.988;11.034;2023-11-19T04:55:35;98508.28;;;17.78;57.82
83128;BME280;73148;50.988;11.034;2023-11-19T04:58:00;98497.84;;;17.76;57.98
83128;BME280;73148;50.988;11.034;2023-11-19T05:00:26;98488.25;;;17.77;57.88
83128;BME280;73148;50.988;11.034;2023-11-19T05:02:52;98484.75;;;17.76;58.16
83128;BME280;73148;50.988;11.034;2023-11-19T05:05:18;98476.91;;;17.76;58.02
83128;BME280;73148;50.988;11.034;2023-11-19T05:07:43;98462.03;;;17.77;58.05
83128;BME280;73148;50.988;11.034;2023-11-19T05:10:09;98446.25;;;17.78;58.05
83128;BME280;73148;50.988;11.034;2023-11-19T05:12:35;98431.47;;;17.77;57.94
83128;BME280;73148;50.988;11.034;2023-11-19T05:15:00;98431.59;;;17.74;57.67
83128;BME280;73148;50.988;11.034;2023-11-19T05:17:25;98420.31;;;17.72;58.14
83128;BME280;73148;50.988;11.034;2023-11-19T05:19:52;98451.63;;;17.75;58.19
83128;BME280;73148;50.988;11.034;2023-11-19T05:22:18;98444.56;;;17.77;57.94
83128;BME280;73148;50.988;11.034;2023-11-19T05:24:43;98439.38;;;17.76;58.12
83128;BME280;73148;50.988;11.034;2023-11-19T05:27:09;98449.88;;;17.76;57.99
83128;BME280;73148;50.988;11.034;2023-11-19T05:29:36;98449.81;;;17.77;58.06
83128;BME280;73148;50.988;11.034;2023-11-19T05:32:04;98466.41;;;17.76;58.03
83128;BME280;73148;50.988;11.034;2023-11-19T05:34:30;98459.75;;;17.69;58.05
83128;BME280;73148;50.988;11.034;2023-11-19T05:36:57;98487.31;;;17.78;58.17
83128;BME280;73148;50.988;11.034;2023-11-19T05:39:22;98482.13;;;17.76;57.92
83128;BME280;73148;50.988;11.034;2023-11-19T05:41:48;98476.13;;;17.74;57.95
83128;BME280;73148;50.988;11.034;2023-11-19T05:44:13;98479.50;;;17.76;58.01
83128;BME280;73148;50.988;11.034;2023-11-19T05:46:39;98489.16;;;17.76;57.95
83128;BME280;73148;50.988;11.034;2023-11-19T05:49:07;98491.78;;;17.76;58.36
83128;BME280;73148;50.988;11.034;2023-11-19T05:51:36;98486.53;;;17.76;58.09
83128;BME280;73148;50.988;11.034;2023-11-19T05:54:03;98478.41;;;17.62;58.08
83128;BME280;73148;50.988;11.034;2023-11-19T05:56:28;98492.63;;;17.76;57.88
83128;BME280;73148;50.988;11.034;2023-11-19T05:58:57;98489.16;;;17.76;58.20
83128;BME280;73148;50.988;11.034;2023-11-19T06:01:23;98476.13;;;17.74;57.89
83128;BME280;73148;50.988;11.034;2023-11-19T06:03:48;98476.91;;;17.76;57.88
83128;BME280;73148;50.988;11.034;2023-11-19T06:06:15;98474.28;;;17.76;58.36
83128;BME280;73148;50.988;11.034;2023-11-19T06:08:40;98467.28;;;17.77;57.94
83128;BME280;73148;50.988;11.034;2023-11-19T06:11:07;98464.66;;;17.77;57.85
83128;BME280;73148;50.988;11.034;2023-11-19T06:13:32;98454.19;;;17.77;58.22
83128;BME280;73148;50.988;11.034;2023-11-19T06:15:58;98463.81;;;17.76;57.84
83128;BME280;73148;50.988;11.034;2023-11-19T06:18:23;98466.34;;;17.78;58.08
83128;BME280;73148;50.988;11.034;2023-11-19T06:20:49;98454.25;;;17.75;58.01
83128;BME280;73148;50.988;11.034;2023-11-19T06:23:15;98448.94;;;17.77;57.98
83128;BME280;73148;50.988;11.034;2023-11-19T06:25:40;98443.75;;;17.75;57.87
83128;BME280;73148;50.988;11.034;2023-11-19T06:28:07;98443.75;;;17.75;58.16
83128;BME280;73148;50.988;11.034;2023-11-19T06:30:32;98433.28;;;17.75;57.85
83128;BME280;73148;50.988;11.034;2023-11-19T06:32:58;98424.44;;;17.78;57.94
83128;BME280;73148;50.988;11.034;2023-11-19T06:35:23;98428.03;;;17.75;57.73
83128;BME280;73148;50.988;11.034;2023-11-19T06:37:49;98449.88;;;17.76;57.89
83128;BME280;73148;50.988;11.034;2023-11-19T06:40:14;98448.03;;;17.78;58.00
83128;BME280;73148;50.988;11.034;2023-11-19T06:42:40;98444.63;;;17.76;57.91
83128;BME280;73148;50.988;11.034;2023-11-19T06:45:08;98443.75;;;17.75;57.88
83128;BME280;73148;50.988;11.034;2023-11-19T06:47:34;98454.25;;;17.75;57.97
83128;BME280;73148;50.988;11.034;2023-11-19T06:50:00;98463.81;;;17.76;57.85
83128;BME280;73148;50.988;11.034;2023-11-19T06:52:25;98456.88;;;17.75;58.04
83128;BME280;73148;50.988;11.034;2023-11-19T06:54:50;98456.88;;;17.75;58.00
83128;BME280;73148;50.988;11.034;2023-11-19T06:57:16;98450.69;;;17.76;57.89
83128;BME280;73148;50.988;11.034;2023-11-19T06:59:42;98455.94;;;17.76;57.88
83128;BME280;73148;50.988;11.034;2023-11-19T07:02:08;98460.34;;;17.76;57.82
83128;BME280;73148;50.988;11.034;2023-11-19T07:04:34;98450.69;;;17.76;58.05
83128;BME280;73148;50.988;11.034;2023-11-19T07:06:59;98455.03;;;17.77;57.86
83128;BME280;73148;50.988;11.034;2023-11-19T07:09:25;98460.34;;;17.76;57.91
83128;BME280;73148;50.988;11.034;2023-11-19T07:11:50;98454.25;;;17.75;57.83
83128;BME280;73148;50.988;11.034;2023-11-19T07:14:17;98455.03;;;17.77;57.90
83128;BME280;73148;50.988;11.034;2023-11-19T07:16:43;98460.28;;;17.77;57.80
83128;BME280;73148;50.988;11.034;2023-11-19T07:19:10;98450.69;;;17.76;57.93
83128;BME280;73148;50.988;11.034;2023-11-19T07:21:36;98438.53;;;17.75;58.06
83128;BME280;73148;50.988;11.034;2023-11-19T07:24:05;98451.63;;;17.75;57.88
83128;BME280;73148;50.988;11.034;2023-11-19T07:26:31;98456.88;;;17.75;58.06
83128;BME280;73148;50.988;11.034;2023-11-19T07:28:56;98458.63;;;17.75;58.01
83128;BME280;73148;50.988;11.034;2023-11-19T07:31:23;98448.94;;;17.77;57.94
83128;BME280;73148;50.988;11.034;2023-11-19T07:33:49;98454.13;;;17.78;57.95
83128;BME280;73148;50.988;11.034;2023-11-19T07:36:15;98446.31;;;17.77;57.89
83128;BME280;73148;50.988;11.034;2023-11-19T07:38:41;98447.09;;;17.79;57.85
83128;BME280;73148;50.988;11.034;2023-11-19T07:41:08;98453.31;;;17.76;57.68
83128;BME280;73148;50.988;11.034;2023-11-19T07:43:39;98459.31;;;17.80;57.82
83128;BME280;73148;50.988;11.034;2023-11-19T07:46:05;98460.13;;;17.80;57.90
83128;BME280;73148;50.988;11.034;2023-11-19T07:48:32;98463.69;;;17.79;57.82
83128;BME280;73148;50.988;11.034;2023-11-19T07:50:58;98468.84;;;17.81;57.98
83128;BME280;73148;50.988;11.034;2023-11-19T07:53:25;98480.09;;;17.83;57.80
83128;BME280;73148;50.988;11.034;2023-11-19T07:55:50;98471.41;;;17.82;57.82
83128;BME280;73148;50.988;11.034;2023-11-19T07:58:15;98459.31;;;17.80;58.04
83128;BME280;73148;50.988;11.034;2023-11-19T08:00:41;98455.75;;;17.81;58.02
83128;BME280;73148;50.988;11.034;2023-11-19T08:03:06;98468.00;;;17.80;58.01
83128;BME280;73148;50.988;11.034;2023-11-19T08:05:32;98461.75;;;17.83;58.04
83128;BME280;73148;50.988;11.034;2023-11-19T08:07:57;98441.25;;;17.72;58.12
83128;BME280;73148;50.988;11.034;2023-11-19T08:10:25;98451.22;;;17.84;58.11
83128;BME280;73148;50.988;11.034;2023-11-19T08:12:50;98448.59;;;17.84;57.97
83128;BME280;73148;50.988;11.034;2023-11-19T08:15:15;98451.09;;;17.87;58.05
83128;BME280;73148;50.988;11.034;2023-11-19T08:17:41;98444.16;;;17.86;58.02
83128;BME280;73148;50.988;11.034;2023-11-19T08:20:07;98456.28;;;17.89;58.10
83128;BME280;73148;50.988;11.034;2023-11-19T08:22:35;98468.44;;;17.90;57.67
83128;BME280;73148;50.988;11.034;2023-11-19T08:25:01;98455.47;;;17.87;58.11
83128;BME280;73148;50.988;11.034;2023-11-19T08:27:27;98454.50;;;17.89;57.94
83128;BME280;73148;50.988;11.034;2023-11-19T08:29:53;98450.16;;;17.88;58.11
83128;BME280;73148;50.988;11.034;2023-11-19T08:32:19;98454.44;;;17.91;58.05
83128;BME280;73148;50.988;11.034;2023-11-19T08:34:44;98442.13;;;17.93;57.99
83128;BME280;73148;50.988;11.034;2023-11-19T08:37:09;98442.84;;;17.96;57.82
83128;BME280;73148;50.988;11.034;2023-11-19T08:39:35;98444.53;;;17.97;57.97
83128;BME280;73148;50.988;11.034;2023-11-19T08:42:03;98449.63;;;18.00;57.84
83128;BME280;73148;50.988;11.034;2023-11-19T08:44:30;98461.81;;;18.01;57.66
83128;BME280;73148;50.988;11.034;2023-11-19T08:46:55;98453.19;;;17.99;57.77
83128;BME280;73148;50.988;11.034;2023-11-19T08:49:20;98447.94;;;17.99;57.78
83128;BME280;73148;50.988;11.034;2023-11-19T08:51:46;98453.91;;;18.03;57.83
83128;BME280;73148;50.988;11.034;2023-11-19T08:54:12;98457.38;;;18.03;57.75
83128;BME280;73148;50.988;11.034;2023-11-19T08:56:38;98443.41;;;18.03;57.70
83128;BME280;73148;50.988;11.034;2023-11-19T08:59:04;98444.28;;;18.03;57.87
83128;BME280;73148;50.988;11.034;2023-11-19T09:01:31;98439.09;;;18.02;57.88
83128;BME280;73148;50.988;11.034;2023-11-19T09:03:56;98438.03;;;18.06;57.97
83128;BME280;73148;50.988;11.034;2023-11-19T09:06:22;98438.03;;;18.06;57.79
83128;BME280;73148;50.988;11.034;2023-11-19T09:08:48;98465.88;;;18.08;57.68
83128;BME280;73148;50.988;11.034;2023-11-19T09:11:13;98458.78;;;18.10;57.63
83128;BME280;73148;50.988;11.034;2023-11-19T09:13:38;98459.72;;;18.09;57.49
83128;BME280;73148;50.988;11.034;2023-11-19T09:16:04;98462.22;;;18.12;57.76
83128;BME280;73148;50.988;11.034;2023-11-19T09:18:31;98474.44;;;18.12;57.77
83128;BME280;73148;50.988;11.034;2023-11-19T09:20:57;98467.44;;;18.12;57.74
83128;BME280;73148;50.988;11.034;2023-11-19T09:23:23;98470.94;;;18.13;57.82
83128;BME280;73148;50.988;11.034;2023-11-19T09:25:49;98488.31;;;18.15;57.68
83128;BME280;73148;50.988;11.034;2023-11-19T09:28:15;98486.50;;;18.16;58.22
83128;BME280;73148;50.988;11.034;2023-11-19T09:30:40;98493.47;;;18.17;57.79
83128;BME280;73148;50.988;11.034;2023-11-19T09:33:05;98493.47;;;18.17;57.90
83128;BME280;73148;50.988;11.034;2023-11-19T09:35:32;98484.75;;;18.16;58.33
83128;BME280;73148;50.988;11.034;2023-11-19T09:37:58;98496.94;;;18.17;58.43
83128;BME280;73148;50.988;11.034;2023-11-19T09:40:24;98503.88;;;18.18;58.50
83128;BME280;73148;50.988;11.034;2023-11-19T09:42:50;98518.72;;;18.19;58.46
83128;BME280;73148;50.988;11.034;2023-11-19T09:45:17;98508.94;;;18.23;58.41
83128;BME280;73148;50.988;11.034;2023-11-19T09:47:46;98477.75;;;18.17;58.31
83128;BME280;73148;50.988;11.034;2023-11-19T09:50:16;98468.16;;;18.16;58.16
83128;BME280;73148;50.988;11.034;2023-11-19T09:52:43;98472.91;;;18.26;58.38
83128;BME280;73148;50.988;11.034;2023-11-19T09:55:08;98485.91;;;18.29;58.31
83128;BME280;73148;50.988;11.034;2023-11-19T09:57:34;98481.59;;;18.28;58.34
83128;BME280;73148;50.988;11.034;2023-11-19T10:00:02;98471.94;;;18.29;58.30
83128;BME280;73148;50.988;11.034;2023-11-19T10:02:31;98472.84;;;18.28;58.38
83128;BME280;73148;50.988;11.034;2023-11-19T10:04:58;98466.69;;;18.29;58.59
83128;BME280;73148;50.988;11.034;2023-11-19T10:07:24;98443.09;;;18.29;58.41
83128;BME280;73148;50.988;11.034;2023-11-19T10:09:51;98451.81;;;18.29;58.38
83128;BME280;73148;50.988;11.034;2023-11-19T10:12:17;98463.09;;;18.31;58.31
83128;BME280;73148;50.988;11.034;2023-11-19T10:14:43;98466.56;;;18.32;58.38
83128;BME280;73148;50.988;11.034;2023-11-19T10:17:08;98457.84;;;18.31;58.40
83128;BME280;73148;50.988;11.034;2023-11-19T10:19:34;98474.44;;;18.32;58.38
83128;BME280;73148;50.988;11.034;2023-11-19T10:22:02;98467.41;;;18.32;58.60
83128;BME280;73148;50.988;11.034;2023-11-19T10:24:31;98486.56;;;18.34;58.66
83128;BME280;73148;50.988;11.034;2023-11-19T10:26:59;98494.38;;;18.36;58.44
83128;BME280;73148;50.988;11.034;2023-11-19T10:29:24;98512.75;;;18.36;58.64
83128;BME280;73148;50.988;11.034;2023-11-19T10:31:55;98524.09;;;18.36;58.61
83128;BME280;73148;50.988;11.034;2023-11-19T10:34:24;98508.72;;;18.27;58.69
83128;BME280;73148;50.988;11.034;2023-11-19T10:36:51;98517.00;;;18.38;58.56
83128;BME280;73148;50.988;11.034;2023-11-19T10:39:16;98513.59;;;18.36;58.75
83128;BME280;73148;50.988;11.034;2023-11-19T10:41:43;98506.56;;;18.37;58.56
83128;BME280;73148;50.988;11.034;2023-11-19T10:44:10;98502.94;;;18.39;58.39
83128;BME280;73148;50.988;11.034;2023-11-19T10:46:39;98492.34;;;18.42;58.67
83128;BME280;73148;50.988;11.034;2023-11-19T10:49:05;98502.00;;;18.42;58.74
83128;BME280;73148;50.988;11.034;2023-11-19T10:51:32;98509.84;;;18.42;58.70
83128;BME280;73148;50.988;11.034;2023-11-19T10:54:01;98499.28;;;18.43;58.46
83128;BME280;73148;50.988;11.034;2023-11-19T10:56:30;98482.84;;;18.40;58.55
83128;BME280;73148;50.988;11.034;2023-11-19T10:58:56;98495.75;;;18.44;58.75
83128;BME280;73148;50.988;11.034;2023-11-19T11:01:27;98499.28;;;18.43;58.62
83128;BME280;73148;50.988;11.034;2023-11-19T11:03:59;98493.19;;;18.43;58.59
83128;BME280;73148;50.988;11.034;2023-11-19T11:06:26;98467.41;;;18.32;58.75
83128;BME280;73148;50.988;11.034;2023-11-19T11:08:52;98490.34;;;18.47;58.69
83128;BME280;73148;50.988;11.034;2023-11-19T11:11:19;98492.06;;;18.48;58.52
83128;BME280;73148;50.988;11.034;2023-11-19T11:13:50;98489.44;;;18.48;58.43
83128;BME280;73148;50.988;11.034;2023-11-19T11:16:18;98487.66;;;18.49;58.46
83128;BME280;73148;50.988;11.034;2023-11-19T11:18:45;98477.16;;;18.49;58.77
83128;BME280;73148;50.988;11.034;2023-11-19T11:21:17;98477.09;;;18.50;58.42
83128;BME280;73148;50.988;11.034;2023-11-19T11:24:01;98476.25;;;18.50;58.59
83128;BME280;73148;50.988;11.034;2023-11-19T11:27:01;98483.22;;;18.51;58.91
83128;BME280;73148;50.988;11.034;2023-11-19T11:29:37;98472.91;;;18.46;58.55
83128;BME280;73148;50.988;11.034;2023-11-19T11:32:09;98483.28;;;18.49;58.60
83128;BME280;73148;50.988;11.034;2023-11-19T11:34:53;98484.97;;;18.50;58.47
83128;BME280;73148;50.988;11.034;2023-11-19T11:37:30;98486.72;;;18.50;58.62
83128;BME280;73148;50.988;11.034;2023-11-19T11:39:57;98480.59;;;18.51;58.53
83128;BME280;73148;50.988;11.034;2023-11-19T11:42:35;98476.34;;;18.48;58.63
83128;BME280;73148;50.988;11.034;2023-11-19T11:45:02;98492.84;;;18.50;58.36
83128;BME280;73148;50.988;11.034;2023-11-19T11:50:35;98494.69;;;18.48;58.51
83128;BME280;73148;50.988;11.034;2023-11-19T11:53:13;98513.81;;;18.50;58.50
83128;BME280;73148;50.988;11.034;2023-11-19T11:55:56;98504.25;;;18.49;58.39
83128;BME280;73148;50.988;11.034;2023-11-19T11:58:26;98497.66;;;18.41;58.48
83128;BME280;73148;50.988;11.034;2023-11-19T12:00:52;98513.75;;;18.52;58.33
83128;BME280;73148;50.988;11.034;2023-11-19T12:03:20;98523.31;;;18.53;58.35
83128;BME280;73148;50.988;11.034;2023-11-19T12:05:48;98510.22;;;18.53;58.39
83128;BME280;73148;50.988;11.034;2023-11-19T12:08:15;98516.38;;;18.52;58.46
83128;BME280;73148;50.988;11.034;2023-11-19T12:10:46;98518.00;;;18.54;58.43
83128;BME280;73148;50.988;11.034;2023-11-19T12:13:13;98518.81;;;18.56;58.46
83128;BME280;73148;50.988;11.034;2023-11-19T12:16:09;98514.41;;;18.57;58.35
83128;BME280;73148;50.988;11.034;2023-11-19T12:18:34;98517.03;;;18.57;58.74
83128;BME280;73148;50.988;11.034;2023-11-19T12:21:02;98520.50;;;18.57;58.61
83128;BME280;73148;50.988;11.034;2023-11-19T12:23:28;98525.69;;;18.59;58.65
83128;BME280;73148;50.988;11.034;2023-11-19T12:25:54;98523.06;;;18.59;58.59
83128;BME280;73148;50.988;11.034;2023-11-19T12:28:20;98523.84;;;18.61;58.57
83128;BME280;73148;50.988;11.034;2023-11-19T12:30:46;98516.75;;;18.63;58.68
83128;BME280;73148;50.988;11.034;2023-11-19T12:33:13;98522.78;;;18.65;58.59
83128;BME280;73148;50.988;11.034;2023-11-19T12:35:40;98513.91;;;18.67;58.48
83128;BME280;73148;50.988;11.034;2023-11-19T12:38:06;98511.28;;;18.67;58.48
83128;BME280;73148;50.988;11.034;2023-11-19T12:40:32;98520.84;;;18.68;58.56
83128;BME280;73148;50.988;11.034;2023-11-19T12:42:57;98513.91;;;18.67;58.44
83128;BME280;73148;50.988;11.034;2023-11-19T12:45:24;98503.41;;;18.67;58.45
83128;BME280;73148;50.988;11.034;2023-11-19T12:47:50;98503.34;;;18.69;58.53
83128;BME280;73148;50.988;11.034;2023-11-19T12:50:29;98499.88;;;18.68;58.16